WetterOnline ( https://www.wetteronline.de )

Wetter aktuell Aue

Aktuelles Wetter: Carlsfeld (899m)

6-stündlich | Neueste Meldungen
Ortszeit Temperatur Wetter
Di, 28.05. 14:00 10.4° C bedeckt
Di, 28.05. 8:00 9.6° C leichter Regen
Di, 28.05. 2:00 12.3° C Regen
Mo, 27.05. 20:00 15.3° C leicht bewölkt
Mo, 27.05. 14:00 16.5° C bedeckt
Mo, 27.05. 8:00 13.7° C bedeckt
Mo, 27.05. 2:00 12.3° C bedeckt
So, 26.05. 20:00 15.7° C wolkig
Ortszeit Temperatur Wetter
Di, 28.05. 15:00 11.0° C bedeckt
Di, 28.05. 14:40 10.7° C bedeckt
Di, 28.05. 14:30 10.3° C Sprühregen
Di, 28.05. 14:20 10.3° C Sprühregen
Di, 28.05. 14:10 10.3° C bedeckt
Di, 28.05. 14:00 10.4° C bedeckt
Di, 28.05. 13:50 10.4° C bedeckt
Di, 28.05. 13:30 10.4° C bedeckt
Di, 28.05. 13:00 10.0° C bedeckt
Di, 28.05. 12:30 9.6° C Sprühregen
Di, 28.05. 12:00 9.5° C Sprühregen
Ortszeit Relative Feuchte Sichtweite
Di, 28.05. 14:00 87% 40 km
Di, 28.05. 8:00 96% 12 km
Di, 28.05. 2:00 95% 7 km
Mo, 27.05. 20:00 79% 55 km
Mo, 27.05. 14:00 62% 45 km
Mo, 27.05. 8:00 83% 65 km
Mo, 27.05. 2:00 85% 45 km
So, 26.05. 20:00 66% 40 km
Ortszeit Relative Feuchte Sichtweite
Di, 28.05. 15:00 84% 50 km
Di, 28.05. 14:40 87% -
Di, 28.05. 14:30 90% 35 km
Di, 28.05. 14:20 90% -
Di, 28.05. 14:10 89% -
Di, 28.05. 14:00 87% 40 km
Di, 28.05. 13:50 87% -
Di, 28.05. 13:30 89% 40 km
Di, 28.05. 13:00 92% 35 km
Di, 28.05. 12:30 94% 29 km
Di, 28.05. 12:00 92% 24 km
Ortszeit Niederschlagsmenge Niederschlagsart
Di, 28.05. 14:00 2 l/m2 in 6 Std. Regen
Di, 28.05. 8:00 15 l/m2 in 12 Std. Regen
Di, 28.05. 2:00 0.4 l/m2 in 6 Std. Regen
Mo, 27.05. 20:00 2 l/m2 in 12 Std. Regen
Mo, 27.05. 14:00 0.1 l/m2 in 6 Std. Regen
Mo, 27.05. 8:00 0.0 l/m2 in 12 Std. -
Mo, 27.05. 2:00 0.0 l/m2 in 6 Std. -
So, 26.05. 20:00 0.3 l/m2 in 12 Std. Regen
Ortszeit Niederschlagsmenge Niederschlagsart
Di, 28.05. 15:00 <0.05 l/m2 in 1 Std. Regen
Di, 28.05. 14:40 keine Meldung -
Di, 28.05. 14:30 <0.05 l/m2 in 30 Min -
Di, 28.05. 14:20 keine Meldung -
Di, 28.05. 14:10 keine Meldung -
Di, 28.05. 14:00 <0.05 l/m2 in 1 Std. Regen
Di, 28.05. 13:50 keine Meldung -
Di, 28.05. 13:30 <0.05 l/m2 in 30 Min Schneeregen
Di, 28.05. 13:00 0.1 l/m2 in 1 Std. Regen
Di, 28.05. 12:30 0.1 l/m2 in 30 Min -
Di, 28.05. 12:00 0.1 l/m2 in 1 Std. Regen
Ortszeit Stärke Spitze Richtung
km/h Bft. km/h Grad Sektor
Di, 28.05. 14:00 4 1 22 300° NW
Di, 28.05. 8:00 6 1 24 320° NW
Di, 28.05. 2:00 9 2 19 250° W
Mo, 27.05. 20:00 6 1 19 180° S
Mo, 27.05. 14:00 4 1 18 310° NW
Mo, 27.05. 8:00 7 2 22 220° SW
Mo, 27.05. 2:00 9 2 20 180° S
So, 26.05. 20:00 11 2 32 170° S
Ortszeit Stärke Spitze Richtung
km/h Bft. km/h Grad Sektor
Di, 28.05. 15:00 7 2 22 290° W
Di, 28.05. 14:40 7 2 - 280° W
Di, 28.05. 14:30 4 1 11 280° W
Di, 28.05. 14:20 4 1 - 280° W
Di, 28.05. 14:10 4 1 - 290° W
Di, 28.05. 14:00 4 1 11 300° NW
Di, 28.05. 13:50 4 1 - 300° NW
Di, 28.05. 13:30 4 1 11 340° N
Di, 28.05. 13:00 6 1 15 310° NW
Di, 28.05. 12:30 7 2 14 300° NW
Di, 28.05. 12:00 6 1 20 320° NW
Ortszeit Untergrenze Bedeckung Gattung
total tief tief mittel hoch
Di, 28.05. 14:00 420 m 8/8 8/8 - - -
Di, 28.05. 8:00 240 m 7/8 7/8 - - -
Di, 28.05. 2:00 1350 m 8/8 8/8 - - -
Mo, 27.05. 20:00 2400 m 5/8 2/8 - - -
Mo, 27.05. 14:00 960 m 8/8 8/8 - - -
Mo, 27.05. 8:00 2400 m 8/8 8/8 - - -
Mo, 27.05. 2:00 3600 m 8/8 8/8 - - -
So, 26.05. 20:00 8100 m 8/8 0/8 - - -
Ortszeit Bedeckungsgrad in Achtel und Wolkenuntergrenze
Di, 28.05. 15:00 2(300m) 4(1440m) 8(1800m)
Di, 28.05. 14:40 8
Di, 28.05. 14:30 1(270m) 5(690m) 8(1320m)
Di, 28.05. 14:20 1(270m) 5(690m) 8(1320m)
Di, 28.05. 14:10 8
Di, 28.05. 14:00 1(420m) 7(1380m) 8(1800m)
Di, 28.05. 13:50 1(420m) 7(1380m) 8(1800m)
Di, 28.05. 13:30 2(270m) 7(510m) 8(2100m)
Di, 28.05. 13:00 2(210m) 7(390m) 8(2100m)
Di, 28.05. 12:30 4(120m) 7(660m) 8(1440m)
Di, 28.05. 12:00 3(150m) 7(510m) 7(1080m)
Ortszeit Stationsdruck (hPa) Tendenz (hPa in 3 Std.)
Di, 28.05. 14:00 916 + 0,5
Di, 28.05. 8:00 914 + 0,5
Di, 28.05. 2:00 914 - 0,4
Mo, 27.05. 20:00 914 - 1,1
Mo, 27.05. 14:00 916 - 0,7
Mo, 27.05. 8:00 916 + 0,4
Mo, 27.05. 2:00 917 - 0,2
So, 26.05. 20:00 916 + 0,2
Ortszeit Stationsdruck (hPa) Tendenz (hPa in 3 Std.)
Di, 28.05. 15:00 916 - 0,1
Di, 28.05. 14:40 916 keine Meldung
Di, 28.05. 14:30 916 + 0,3
Di, 28.05. 14:20 916 keine Meldung
Di, 28.05. 14:10 916 keine Meldung
Di, 28.05. 14:00 916 + 0,5
Di, 28.05. 13:50 916 keine Meldung
Di, 28.05. 13:30 916 + 0,7
Di, 28.05. 13:00 916 + 1,0
Di, 28.05. 12:30 916 + 1,2
Di, 28.05. 12:00 916 + 1,2
Ortszeit Schneehöhe (cm)
Di, 28.05. 14:00 0
Di, 28.05. 8:00 0
Di, 28.05. 2:00 0
Mo, 27.05. 20:00 0
Mo, 27.05. 14:00 0
Mo, 27.05. 8:00 0
Mo, 27.05. 2:00 0
So, 26.05. 20:00 0
Ortszeit Schneehöhe (cm)
Di, 28.05. 15:00 0
Di, 28.05. 14:40 -
Di, 28.05. 14:30 0
Di, 28.05. 14:20 0
Di, 28.05. 14:10 -
Di, 28.05. 14:00 0
Di, 28.05. 13:50 0
Di, 28.05. 13:30 0
Di, 28.05. 13:00 0
Di, 28.05. 12:30 0
Di, 28.05. 12:00 0
Link zu dieser Seite / Seite empfehlen

Das Wetter in ...